createdAt,value
2023-03-22T05:49:45.733Z,97895.09
2023-03-22T06:09:48.433Z,97892.91
2023-03-22T06:29:52.039Z,97905.31
2023-03-22T06:49:54.561Z,97903.88
2023-03-22T07:09:58.208Z,97907.75
2023-03-22T07:30:00.784Z,97903.63
2023-03-22T07:50:03.281Z,97911.69
2023-03-22T08:10:05.928Z,97902.22
2023-03-22T08:30:08.663Z,97895.22
2023-03-22T08:50:11.552Z,97896.19
2023-03-22T09:10:14.107Z,97885.22
2023-03-22T09:30:16.799Z,97869.56
2023-03-22T09:50:19.524Z,97858.16
2023-03-22T10:10:22.603Z,97843.69
2023-03-22T10:30:25.266Z,97828.56
2023-03-22T10:50:29.778Z,97809.81
2023-03-22T11:10:34.046Z,97815.81
2023-03-22T11:30:36.811Z,97786.59
2023-03-22T11:50:39.752Z,97763.97
2023-03-22T12:10:42.448Z,97741.53
2023-03-22T12:30:44.996Z,97722.06
2023-03-22T12:50:47.835Z,97706.41
2023-03-22T13:10:50.568Z,97696.88
2023-03-22T13:30:56.067Z,97684.94
2023-03-22T13:50:59.470Z,97665.19
2023-03-22T14:11:02.617Z,97654.03
2023-03-22T15:11:07.742Z,97614.00
2023-03-22T15:31:10.595Z,97599.22
2023-03-22T15:51:13.460Z,97592.84
2023-03-22T16:11:16.215Z,97589.81
2023-03-22T16:31:19.043Z,97586.03
2023-03-22T16:51:22.198Z,97582.84
2023-03-22T17:11:29.426Z,97581.56
2023-03-22T17:51:56.250Z,97611.38
2023-03-22T18:11:59.163Z,97618.72
2023-03-22T18:32:12.207Z,97626.28
2023-03-22T19:12:28.762Z,97624.25
2023-03-22T19:32:32.485Z,97634.56
2023-03-22T19:52:39.044Z,97616.37
2023-03-22T20:12:41.788Z,97635.16
2023-03-22T20:32:44.600Z,97627.69
2023-03-22T20:52:48.814Z,97623.41
2023-03-22T21:12:54.237Z,97622.94
2023-03-22T21:32:57.047Z,97620.03
2023-03-22T21:52:59.668Z,97629.53
